sensor_id;sensor_type;location;lat;lon;timestamp;pressure;altitude;pressure_sealevel;temperature;humidity
43480;BME280;29067;35.492;-97.520;2024-01-30T00:02:18;97744.83;;;20.81;26.61
43480;BME280;29067;35.492;-97.520;2024-01-30T00:04:46;97747.95;;;20.21;26.44
43480;BME280;29067;35.492;-97.520;2024-01-30T00:07:14;97751.36;;;19.80;26.72
43480;BME280;29067;35.492;-97.520;2024-01-30T00:09:41;97753.88;;;17.69;27.89
43480;BME280;29067;35.492;-97.520;2024-01-30T00:12:09;97753.27;;;19.28;27.40
43480;BME280;29067;35.492;-97.520;2024-01-30T00:14:37;97756.00;;;18.20;28.09
43480;BME280;29067;35.492;-97.520;2024-01-30T00:17:04;97758.30;;;18.47;28.36
43480;BME280;29067;35.492;-97.520;2024-01-30T00:19:32;97756.98;;;19.42;27.70
43480;BME280;29067;35.492;-97.520;2024-01-30T00:22:00;97755.92;;;19.76;27.65
43480;BME280;29067;35.492;-97.520;2024-01-30T00:24:27;97756.61;;;20.15;27.97
43480;BME280;29067;35.492;-97.520;2024-01-30T00:26:55;97760.97;;;18.77;28.01
43480;BME280;29067;35.492;-97.520;2024-01-30T00:29:23;97766.75;;;15.77;29.85
43480;BME280;29067;35.492;-97.520;2024-01-30T00:31:50;97773.82;;;15.08;31.14
43480;BME280;29067;35.492;-97.520;2024-01-30T00:34:18;97778.99;;;14.42;32.45
43480;BME280;29067;35.492;-97.520;2024-01-30T00:36:46;97781.44;;;15.37;32.26
43480;BME280;29067;35.492;-97.520;2024-01-30T00:39:13;97781.17;;;14.72;32.28
43480;BME280;29067;35.492;-97.520;2024-01-30T00:41:41;97783.42;;;14.87;32.71
43480;BME280;29067;35.492;-97.520;2024-01-30T00:44:09;97780.82;;;16.41;31.25
43480;BME280;29067;35.492;-97.520;2024-01-30T00:46:37;97786.22;;;14.22;32.48
43480;BME280;29067;35.492;-97.520;2024-01-30T00:49:04;97791.55;;;15.48;32.60
43480;BME280;29067;35.492;-97.520;2024-01-30T00:51:32;97791.32;;;15.79;31.72
43480;BME280;29067;35.492;-97.520;2024-01-30T00:54:00;97791.85;;;16.45;31.71
43480;BME280;29067;35.492;-97.520;2024-01-30T00:56:28;97789.86;;;16.56;31.00
43480;BME280;29067;35.492;-97.520;2024-01-30T00:58:56;97794.79;;;15.75;32.39
43480;BME280;29067;35.492;-97.520;2024-01-30T01:01:25;97794.55;;;15.44;32.76
43480;BME280;29067;35.492;-97.520;2024-01-30T01:03:52;97795.98;;;14.23;33.30
43480;BME280;29067;35.492;-97.520;2024-01-30T01:06:20;97802.36;;;15.29;32.84
43480;BME280;29067;35.492;-97.520;2024-01-30T01:08:48;97803.91;;;16.57;31.57
43480;BME280;29067;35.492;-97.520;2024-01-30T01:11:16;97803.75;;;15.05;32.48
43480;BME280;29067;35.492;-97.520;2024-01-30T01:13:44;97802.62;;;16.60;31.11
43480;BME280;29067;35.492;-97.520;2024-01-30T01:16:12;97803.56;;;16.23;31.81
43480;BME280;29067;35.492;-97.520;2024-01-30T01:18:39;97805.64;;;15.40;32.52
43480;BME280;29067;35.492;-97.520;2024-01-30T01:21:08;97806.15;;;15.00;32.91
43480;BME280;29067;35.492;-97.520;2024-01-30T01:23:35;97809.06;;;14.25;33.67
43480;BME280;29067;35.492;-97.520;2024-01-30T01:26:04;97812.15;;;16.32;32.54
43480;BME280;29067;35.492;-97.520;2024-01-30T01:28:32;97817.93;;;14.10;33.78
43480;BME280;29067;35.492;-97.520;2024-01-30T01:31:00;97817.27;;;15.75;32.18
43480;BME280;29067;35.492;-97.520;2024-01-30T01:33:27;97820.08;;;13.94;33.73
43480;BME280;29067;35.492;-97.520;2024-01-30T01:35:55;97822.03;;;13.04;34.98
43480;BME280;29067;35.492;-97.520;2024-01-30T01:38:23;97817.61;;;15.37;33.87
43480;BME280;29067;35.492;-97.520;2024-01-30T01:40:51;97819.73;;;12.73;35.60
43480;BME280;29067;35.492;-97.520;2024-01-30T01:43:18;97820.99;;;12.68;36.49
43480;BME280;29067;35.492;-97.520;2024-01-30T01:45:46;97820.84;;;12.20;37.11
43480;BME280;29067;35.492;-97.520;2024-01-30T01:48:14;97818.18;;;13.78;35.64
43480;BME280;29067;35.492;-97.520;2024-01-30T01:50:42;97811.16;;;15.55;34.53
43480;BME280;29067;35.492;-97.520;2024-01-30T01:53:12;97810.31;;;15.77;33.80
43480;BME280;29067;35.492;-97.520;2024-01-30T01:55:41;97809.22;;;15.53;33.95
43480;BME280;29067;35.492;-97.520;2024-01-30T01:58:10;97813.67;;;13.83;34.97
43480;BME280;29067;35.492;-97.520;2024-01-30T02:00:38;97815.65;;;13.26;36.04
43480;BME280;29067;35.492;-97.520;2024-01-30T02:03:08;97815.29;;;13.33;35.75
43480;BME280;29067;35.492;-97.520;2024-01-30T02:05:38;97815.20;;;13.23;35.77
43480;BME280;29067;35.492;-97.520;2024-01-30T02:08:08;97816.00;;;12.52;36.59
43480;BME280;29067;35.492;-97.520;2024-01-30T02:10:36;97820.88;;;11.71;38.04
43480;BME280;29067;35.492;-97.520;2024-01-30T02:13:04;97819.90;;;11.78;38.14
43480;BME280;29067;35.492;-97.520;2024-01-30T02:15:31;97816.03;;;12.33;37.18
43480;BME280;29067;35.492;-97.520;2024-01-30T02:17:59;97816.66;;;12.94;36.39
43480;BME280;29067;35.492;-97.520;2024-01-30T02:20:30;97822.13;;;12.34;37.64
43480;BME280;29067;35.492;-97.520;2024-01-30T02:22:59;97821.01;;;11.58;37.88
43480;BME280;29067;35.492;-97.520;2024-01-30T02:25:32;97816.88;;;12.91;37.00
43480;BME280;29067;35.492;-97.520;2024-01-30T02:28:01;97818.37;;;12.58;37.54
43480;BME280;29067;35.492;-97.520;2024-01-30T02:30:29;97821.18;;;11.88;37.87
43480;BME280;29067;35.492;-97.520;2024-01-30T02:32:56;97821.94;;;12.04;38.11
43480;BME280;29067;35.492;-97.520;2024-01-30T02:35:24;97821.55;;;13.12;36.83
43480;BME280;29067;35.492;-97.520;2024-01-30T02:37:52;97825.13;;;12.37;37.18
43480;BME280;29067;35.492;-97.520;2024-01-30T02:40:20;97824.74;;;13.10;36.52
43480;BME280;29067;35.492;-97.520;2024-01-30T02:42:48;97831.11;;;12.71;37.35
43480;BME280;29067;35.492;-97.520;2024-01-30T02:45:16;97824.55;;;13.42;36.37
43480;BME280;29067;35.492;-97.520;2024-01-30T02:47:45;97827.54;;;12.87;36.98
43480;BME280;29067;35.492;-97.520;2024-01-30T02:50:13;97823.39;;;13.87;36.04
43480;BME280;29067;35.492;-97.520;2024-01-30T02:52:41;97825.78;;;13.13;35.41
43480;BME280;29067;35.492;-97.520;2024-01-30T02:55:09;97823.48;;;13.59;34.99
43480;BME280;29067;35.492;-97.520;2024-01-30T02:57:37;97822.74;;;13.89;34.88
43480;BME280;29067;35.492;-97.520;2024-01-30T03:00:06;97825.28;;;13.34;35.61
43480;BME280;29067;35.492;-97.520;2024-01-30T03:02:35;97830.53;;;12.55;37.02
43480;BME280;29067;35.492;-97.520;2024-01-30T03:05:03;97831.95;;;12.13;37.42
43480;BME280;29067;35.492;-97.520;2024-01-30T03:07:31;97839.32;;;11.23;38.63
43480;BME280;29067;35.492;-97.520;2024-01-30T03:09:59;97838.42;;;11.46;38.34
43480;BME280;29067;35.492;-97.520;2024-01-30T03:12:27;97842.45;;;11.35;38.30
43480;BME280;29067;35.492;-97.520;2024-01-30T03:14:55;97847.09;;;10.89;38.99
43480;BME280;29067;35.492;-97.520;2024-01-30T03:17:23;97846.46;;;10.40;39.39
43480;BME280;29067;35.492;-97.520;2024-01-30T03:19:51;97850.27;;;11.41;38.98
43480;BME280;29067;35.492;-97.520;2024-01-30T03:22:19;97848.87;;;10.67;39.18
43480;BME280;29067;35.492;-97.520;2024-01-30T03:24:47;97848.21;;;10.48;39.41
43480;BME280;29067;35.492;-97.520;2024-01-30T03:27:14;97848.58;;;10.17;39.74
43480;BME280;29067;35.492;-97.520;2024-01-30T03:29:42;97852.23;;;10.39;40.35
43480;BME280;29067;35.492;-97.520;2024-01-30T03:32:11;97853.08;;;11.12;40.23
43480;BME280;29067;35.492;-97.520;2024-01-30T03:34:38;97853.44;;;10.17;40.48
43480;BME280;29067;35.492;-97.520;2024-01-30T03:37:07;97854.59;;;10.11;40.28
43480;BME280;29067;35.492;-97.520;2024-01-30T03:39:35;97853.54;;;11.18;39.65
43480;BME280;29067;35.492;-97.520;2024-01-30T03:42:03;97854.14;;;10.80;39.10
43480;BME280;29067;35.492;-97.520;2024-01-30T03:44:31;97854.53;;;11.46;39.00
43480;BME280;29067;35.492;-97.520;2024-01-30T03:46:59;97849.38;;;10.72;39.24
43480;BME280;29067;35.492;-97.520;2024-01-30T03:49:27;97848.54;;;10.82;39.40
43480;BME280;29067;35.492;-97.520;2024-01-30T03:51:55;97852.66;;;11.24;38.91
43480;BME280;29067;35.492;-97.520;2024-01-30T03:54:22;97850.02;;;11.02;39.20
43480;BME280;29067;35.492;-97.520;2024-01-30T03:56:50;97857.58;;;10.61;39.61
43480;BME280;29067;35.492;-97.520;2024-01-30T03:59:18;97849.70;;;9.80;40.41
43480;BME280;29067;35.492;-97.520;2024-01-30T04:01:47;97849.20;;;11.18;38.95
43480;BME280;29067;35.492;-97.520;2024-01-30T04:04:15;97844.74;;;11.39;38.99
43480;BME280;29067;35.492;-97.520;2024-01-30T04:06:44;97847.31;;;11.30;38.75
43480;BME280;29067;35.492;-97.520;2024-01-30T04:09:12;97843.97;;;12.10;38.09
43480;BME280;29067;35.492;-97.520;2024-01-30T04:11:41;97845.38;;;12.05;37.84
43480;BME280;29067;35.492;-97.520;2024-01-30T04:14:10;97842.08;;;12.31;37.83
43480;BME280;29067;35.492;-97.520;2024-01-30T04:16:38;97842.14;;;11.24;38.10
43480;BME280;29067;35.492;-97.520;2024-01-30T04:19:05;97840.71;;;10.80;39.23
43480;BME280;29067;35.492;-97.520;2024-01-30T04:21:33;97841.31;;;11.60;38.85
43480;BME280;29067;35.492;-97.520;2024-01-30T04:24:01;97839.51;;;11.51;38.91
43480;BME280;29067;35.492;-97.520;2024-01-30T04:26:29;97835.70;;;11.42;39.06
43480;BME280;29067;35.492;-97.520;2024-01-30T04:28:57;97837.14;;;10.35;39.49
43480;BME280;29067;35.492;-97.520;2024-01-30T04:31:24;97843.29;;;9.99;40.39
43480;BME280;29067;35.492;-97.520;2024-01-30T04:33:52;97841.50;;;10.20;40.77
43480;BME280;29067;35.492;-97.520;2024-01-30T04:36:20;97837.62;;;10.31;40.81
43480;BME280;29067;35.492;-97.520;2024-01-30T04:38:48;97838.53;;;9.66;41.38
43480;BME280;29067;35.492;-97.520;2024-01-30T04:41:16;97837.97;;;8.91;42.22
43480;BME280;29067;35.492;-97.520;2024-01-30T04:43:43;97831.87;;;9.15;41.39
43480;BME280;29067;35.492;-97.520;2024-01-30T04:46:11;97831.76;;;9.30;41.64
43480;BME280;29067;35.492;-97.520;2024-01-30T04:48:40;97831.07;;;9.16;42.24
43480;BME280;29067;35.492;-97.520;2024-01-30T04:51:08;97833.12;;;9.35;41.82
43480;BME280;29067;35.492;-97.520;2024-01-30T04:53:35;97833.31;;;9.23;41.96
43480;BME280;29067;35.492;-97.520;2024-01-30T04:58:13;97835.85;;;8.95;43.03
43480;BME280;29067;35.492;-97.520;2024-01-30T05:00:41;97835.88;;;9.34;42.22
43480;BME280;29067;35.492;-97.520;2024-01-30T05:03:09;97831.50;;;9.67;41.82
43480;BME280;29067;35.492;-97.520;2024-01-30T05:05:37;97830.60;;;8.56;42.59
43480;BME280;29067;35.492;-97.520;2024-01-30T05:08:05;97831.69;;;8.21;43.34
43480;BME280;29067;35.492;-97.520;2024-01-30T05:10:33;97827.03;;;8.57;43.50
43480;BME280;29067;35.492;-97.520;2024-01-30T05:13:01;97827.47;;;8.22;43.57
43480;BME280;29067;35.492;-97.520;2024-01-30T05:15:29;97831.16;;;7.84;43.73
43480;BME280;29067;35.492;-97.520;2024-01-30T05:17:57;97834.52;;;8.40;43.46
43480;BME280;29067;35.492;-97.520;2024-01-30T05:20:25;97832.81;;;8.16;43.84
43480;BME280;29067;35.492;-97.520;2024-01-30T05:22:53;97833.70;;;8.35;44.09
43480;BME280;29067;35.492;-97.520;2024-01-30T05:25:20;97830.28;;;8.46;43.76
43480;BME280;29067;35.492;-97.520;2024-01-30T05:27:48;97829.75;;;8.74;43.11
43480;BME280;29067;35.492;-97.520;2024-01-30T05:30:16;97832.64;;;8.51;43.66
43480;BME280;29067;35.492;-97.520;2024-01-30T05:32:44;97830.21;;;8.39;43.48
43480;BME280;29067;35.492;-97.520;2024-01-30T05:35:12;97827.44;;;8.62;42.83
43480;BME280;29067;35.492;-97.520;2024-01-30T05:37:40;97826.42;;;8.44;42.66
43480;BME280;29067;35.492;-97.520;2024-01-30T05:40:08;97821.77;;;9.27;41.76
43480;BME280;29067;35.492;-97.520;2024-01-30T05:42:36;97821.83;;;8.34;42.45
43480;BME280;29067;35.492;-97.520;2024-01-30T05:45:05;97821.85;;;8.98;41.83
43480;BME280;29067;35.492;-97.520;2024-01-30T05:47:33;97815.63;;;9.98;40.74
43480;BME280;29067;35.492;-97.520;2024-01-30T05:50:00;97816.93;;;8.81;41.27
43480;BME280;29067;35.492;-97.520;2024-01-30T05:52:28;97815.05;;;10.08;40.34
43480;BME280;29067;35.492;-97.520;2024-01-30T05:54:56;97812.58;;;9.44;40.11
43480;BME280;29067;35.492;-97.520;2024-01-30T05:57:24;97812.45;;;9.32;40.58
43480;BME280;29067;35.492;-97.520;2024-01-30T05:59:52;97812.15;;;9.67;39.83
43480;BME280;29067;35.492;-97.520;2024-01-30T06:02:19;97808.79;;;9.85;39.22
43480;BME280;29067;35.492;-97.520;2024-01-30T06:04:47;97809.33;;;10.72;38.86
43480;BME280;29067;35.492;-97.520;2024-01-30T06:07:15;97808.61;;;10.99;38.65
43480;BME280;29067;35.492;-97.520;2024-01-30T06:09:43;97811.87;;;10.14;39.28
43480;BME280;29067;35.492;-97.520;2024-01-30T06:12:11;97813.09;;;11.18;38.49
43480;BME280;29067;35.492;-97.520;2024-01-30T06:14:39;97814.31;;;10.92;38.18
43480;BME280;29067;35.492;-97.520;2024-01-30T06:17:07;97818.02;;;11.25;38.33
43480;BME280;29067;35.492;-97.520;2024-01-30T06:19:35;97816.22;;;11.80;37.18
43480;BME280;29067;35.492;-97.520;2024-01-30T06:22:03;97814.78;;;11.39;37.19
43480;BME280;29067;35.492;-97.520;2024-01-30T06:24:31;97812.04;;;11.66;37.36
43480;BME280;29067;35.492;-97.520;2024-01-30T06:26:59;97808.87;;;11.67;36.94
43480;BME280;29067;35.492;-97.520;2024-01-30T06:29:27;97803.06;;;12.31;36.43
43480;BME280;29067;35.492;-97.520;2024-01-30T06:31:55;97801.90;;;11.76;36.62
43480;BME280;29067;35.492;-97.520;2024-01-30T06:34:22;97802.98;;;12.16;36.09
43480;BME280;29067;35.492;-97.520;2024-01-30T06:36:50;97799.37;;;12.83;35.69
43480;BME280;29067;35.492;-97.520;2024-01-30T06:39:18;97809.04;;;11.37;37.19
43480;BME280;29067;35.492;-97.520;2024-01-30T06:41:46;97803.04;;;11.30;36.55
43480;BME280;29067;35.492;-97.520;2024-01-30T06:44:14;97803.19;;;11.78;36.36
43480;BME280;29067;35.492;-97.520;2024-01-30T06:46:42;97801.78;;;12.56;36.08
43480;BME280;29067;35.492;-97.520;2024-01-30T06:49:09;97801.56;;;11.39;37.07
43480;BME280;29067;35.492;-97.520;2024-01-30T06:51:37;97802.27;;;11.50;37.59
43480;BME280;29067;35.492;-97.520;2024-01-30T06:54:05;97795.27;;;11.88;36.66
43480;BME280;29067;35.492;-97.520;2024-01-30T06:56:34;97795.67;;;10.53;37.81
43480;BME280;29067;35.492;-97.520;2024-01-30T06:59:01;97796.31;;;11.16;37.67
43480;BME280;29067;35.492;-97.520;2024-01-30T07:01:29;97794.84;;;12.41;36.45
43480;BME280;29067;35.492;-97.520;2024-01-30T07:03:57;97793.63;;;12.54;36.19
43480;BME280;29067;35.492;-97.520;2024-01-30T07:06:26;97792.16;;;12.19;36.48
43480;BME280;29067;35.492;-97.520;2024-01-30T07:08:54;97795.01;;;10.99;37.61
43480;BME280;29067;35.492;-97.520;2024-01-30T07:11:22;97799.55;;;8.32;40.19
43480;BME280;29067;35.492;-97.520;2024-01-30T07:13:51;97801.66;;;8.49;40.53
43480;BME280;29067;35.492;-97.520;2024-01-30T07:16:19;97811.51;;;7.72;42.65
43480;BME280;29067;35.492;-97.520;2024-01-30T07:18:46;97812.13;;;7.47;43.84
43480;BME280;29067;35.492;-97.520;2024-01-30T07:21:14;97806.01;;;8.09;42.76
43480;BME280;29067;35.492;-97.520;2024-01-30T07:23:43;97801.84;;;8.74;43.03
43480;BME280;29067;35.492;-97.520;2024-01-30T07:26:10;97808.06;;;7.11;44.25
43480;BME280;29067;35.492;-97.520;2024-01-30T07:28:38;97805.22;;;7.88;44.09
43480;BME280;29067;35.492;-97.520;2024-01-30T07:31:06;97808.86;;;5.90;46.99
43480;BME280;29067;35.492;-97.520;2024-01-30T07:33:34;97809.11;;;5.97;47.27
43480;BME280;29067;35.492;-97.520;2024-01-30T07:36:02;97800.77;;;7.86;44.73
43480;BME280;29067;35.492;-97.520;2024-01-30T07:38:32;97806.45;;;7.05;45.95
43480;BME280;29067;35.492;-97.520;2024-01-30T07:41:00;97797.70;;;9.14;42.67
43480;BME280;29067;35.492;-97.520;2024-01-30T07:43:28;97796.71;;;9.47;42.40
43480;BME280;29067;35.492;-97.520;2024-01-30T07:45:56;97795.60;;;9.48;41.10
43480;BME280;29067;35.492;-97.520;2024-01-30T07:48:24;97799.57;;;9.26;42.32
43480;BME280;29067;35.492;-97.520;2024-01-30T07:50:52;97796.96;;;8.12;43.26
43480;BME280;29067;35.492;-97.520;2024-01-30T07:53:20;97796.24;;;8.96;42.03
43480;BME280;29067;35.492;-97.520;2024-01-30T07:55:48;97792.93;;;10.01;40.82
43480;BME280;29067;35.492;-97.520;2024-01-30T07:58:15;97799.09;;;8.49;42.32
43480;BME280;29067;35.492;-97.520;2024-01-30T08:00:43;97798.27;;;9.64;41.38
43480;BME280;29067;35.492;-97.520;2024-01-30T08:03:11;97801.45;;;8.62;41.60
43480;BME280;29067;35.492;-97.520;2024-01-30T08:05:39;97803.56;;;8.57;42.19
43480;BME280;29067;35.492;-97.520;2024-01-30T08:08:07;97801.95;;;9.45;40.85
43480;BME280;29067;35.492;-97.520;2024-01-30T08:10:36;97801.44;;;9.63;40.84
43480;BME280;29067;35.492;-97.520;2024-01-30T08:13:03;97800.28;;;9.39;40.50
43480;BME280;29067;35.492;-97.520;2024-01-30T08:15:31;97805.24;;;9.23;41.35
43480;BME280;29067;35.492;-97.520;2024-01-30T08:17:59;97812.11;;;9.12;41.13
43480;BME280;29067;35.492;-97.520;2024-01-30T08:20:27;97812.32;;;10.66;40.25
43480;BME280;29067;35.492;-97.520;2024-01-30T08:22:55;97809.24;;;10.73;39.01
43480;BME280;29067;35.492;-97.520;2024-01-30T08:25:23;97819.86;;;10.18;39.68
43480;BME280;29067;35.492;-97.520;2024-01-30T08:27:50;97821.37;;;10.94;38.81
43480;BME280;29067;35.492;-97.520;2024-01-30T08:30:18;97815.35;;;9.43;40.24
43480;BME280;29067;35.492;-97.520;2024-01-30T08:32:46;97817.71;;;10.27;39.93
43480;BME280;29067;35.492;-97.520;2024-01-30T08:35:14;97819.56;;;10.26;39.35
43480;BME280;29067;35.492;-97.520;2024-01-30T08:37:42;97820.33;;;11.03;39.10
43480;BME280;29067;35.492;-97.520;2024-01-30T08:40:10;97817.41;;;11.20;38.35
43480;BME280;29067;35.492;-97.520;2024-01-30T08:42:38;97819.38;;;11.76;38.30
43480;BME280;29067;35.492;-97.520;2024-01-30T08:45:06;97825.99;;;11.71;37.67
43480;BME280;29067;35.492;-97.520;2024-01-30T08:47:35;97831.75;;;12.59;37.40
43480;BME280;29067;35.492;-97.520;2024-01-30T08:50:03;97827.16;;;10.84;38.35
43480;BME280;29067;35.492;-97.520;2024-01-30T08:52:31;97830.37;;;11.00;38.06
43480;BME280;29067;35.492;-97.520;2024-01-30T08:54:59;97829.85;;;10.28;38.55
43480;BME280;29067;35.492;-97.520;2024-01-30T08:57:27;97830.87;;;9.63;39.59
43480;BME280;29067;35.492;-97.520;2024-01-30T08:59:56;97824.97;;;9.86;39.47
43480;BME280;29067;35.492;-97.520;2024-01-30T09:02:23;97830.65;;;9.04;40.43
43480;BME280;29067;35.492;-97.520;2024-01-30T09:04:51;97832.74;;;8.20;40.85
43480;BME280;29067;35.492;-97.520;2024-01-30T09:07:19;97824.16;;;9.52;39.71
43480;BME280;29067;35.492;-97.520;2024-01-30T09:09:47;97823.40;;;9.51;40.14
43480;BME280;29067;35.492;-97.520;2024-01-30T09:12:16;97821.48;;;9.62;39.64
43480;BME280;29067;35.492;-97.520;2024-01-30T09:14:43;97819.89;;;11.07;39.37
43480;BME280;29067;35.492;-97.520;2024-01-30T09:17:11;97818.05;;;10.73;38.65
43480;BME280;29067;35.492;-97.520;2024-01-30T09:19:39;97822.32;;;10.72;38.78
43480;BME280;29067;35.492;-97.520;2024-01-30T09:22:08;97823.78;;;11.08;38.49
43480;BME280;29067;35.492;-97.520;2024-01-30T09:24:36;97821.23;;;11.42;37.70
43480;BME280;29067;35.492;-97.520;2024-01-30T09:27:04;97821.66;;;10.63;38.22
43480;BME280;29067;35.492;-97.520;2024-01-30T09:29:32;97824.08;;;10.82;38.56
43480;BME280;29067;35.492;-97.520;2024-01-30T09:32:00;97825.78;;;11.38;38.04
43480;BME280;29067;35.492;-97.520;2024-01-30T09:34:28;97823.67;;;10.23;38.48
43480;BME280;29067;35.492;-97.520;2024-01-30T09:36:56;97824.32;;;10.40;38.93
43480;BME280;29067;35.492;-97.520;2024-01-30T09:39:23;97827.87;;;10.38;39.04
43480;BME280;29067;35.492;-97.520;2024-01-30T09:42:00;97825.17;;;9.30;39.86
43480;BME280;29067;35.492;-97.520;2024-01-30T09:44:29;97830.64;;;7.92;42.09
43480;BME280;29067;35.492;-97.520;2024-01-30T09:46:57;97823.19;;;9.10;41.34
43480;BME280;29067;35.492;-97.520;2024-01-30T09:49:26;97825.52;;;7.99;42.52
43480;BME280;29067;35.492;-97.520;2024-01-30T09:51:54;97829.38;;;7.18;43.94
43480;BME280;29067;35.492;-97.520;2024-01-30T09:54:23;97825.93;;;8.92;42.56
43480;BME280;29067;35.492;-97.520;2024-01-30T09:56:50;97829.90;;;7.38;43.63
43480;BME280;29067;35.492;-97.520;2024-01-30T09:59:18;97836.45;;;6.76;45.17
43480;BME280;29067;35.492;-97.520;2024-01-30T10:01:46;97834.00;;;6.67;46.49
43480;BME280;29067;35.492;-97.520;2024-01-30T10:04:15;97828.72;;;7.67;44.59
43480;BME280;29067;35.492;-97.520;2024-01-30T10:06:43;97835.97;;;6.43;45.77
43480;BME280;29067;35.492;-97.520;2024-01-30T10:09:10;97833.01;;;6.03;46.53
43480;BME280;29067;35.492;-97.520;2024-01-30T10:11:39;97829.61;;;7.28;45.72
43480;BME280;29067;35.492;-97.520;2024-01-30T10:14:07;97828.05;;;7.42;46.24
43480;BME280;29067;35.492;-97.520;2024-01-30T10:16:35;97827.60;;;6.60;46.22
43480;BME280;29067;35.492;-97.520;2024-01-30T10:19:03;97825.49;;;7.53;46.29
43480;BME280;29067;35.492;-97.520;2024-01-30T10:21:31;97822.79;;;7.09;46.23
43480;BME280;29067;35.492;-97.520;2024-01-30T10:23:59;97822.67;;;6.89;45.80
43480;BME280;29067;35.492;-97.520;2024-01-30T10:26:26;97825.47;;;5.38;48.27
43480;BME280;29067;35.492;-97.520;2024-01-30T10:28:54;97823.71;;;6.83;46.69
43480;BME280;29067;35.492;-97.520;2024-01-30T10:31:22;97824.28;;;6.84;46.33
43480;BME280;29067;35.492;-97.520;2024-01-30T10:33:50;97816.25;;;8.62;44.22
43480;BME280;29067;35.492;-97.520;2024-01-30T10:36:18;97812.88;;;9.59;43.09
43480;BME280;29067;35.492;-97.520;2024-01-30T10:38:46;97813.33;;;9.47;43.13
43480;BME280;29067;35.492;-97.520;2024-01-30T10:41:15;97813.08;;;8.88;42.95
43480;BME280;29067;35.492;-97.520;2024-01-30T10:43:54;97815.28;;;8.75;43.51
43480;BME280;29067;35.492;-97.520;2024-01-30T10:46:31;97819.50;;;8.79;44.22
43480;BME280;29067;35.492;-97.520;2024-01-30T10:49:00;97816.32;;;8.46;43.33
43480;BME280;29067;35.492;-97.520;2024-01-30T10:51:29;97817.26;;;8.68;44.01
43480;BME280;29067;35.492;-97.520;2024-01-30T10:53:58;97815.26;;;8.59;43.79
43480;BME280;29067;35.492;-97.520;2024-01-30T10:56:27;97816.53;;;8.44;43.76
43480;BME280;29067;35.492;-97.520;2024-01-30T10:58:55;97816.86;;;8.61;43.89
43480;BME280;29067;35.492;-97.520;2024-01-30T11:01:24;97816.96;;;9.17;42.67
43480;BME280;29067;35.492;-97.520;2024-01-30T11:03:54;97816.52;;;9.31;42.25
43480;BME280;29067;35.492;-97.520;2024-01-30T11:06:23;97828.47;;;7.85;43.99
43480;BME280;29067;35.492;-97.520;2024-01-30T11:09:01;97819.24;;;9.24;42.81
43480;BME280;29067;35.492;-97.520;2024-01-30T11:11:29;97819.10;;;9.75;42.52
43480;BME280;29067;35.492;-97.520;2024-01-30T11:14:01;97816.95;;;9.74;42.60
43480;BME280;29067;35.492;-97.520;2024-01-30T11:16:32;97818.14;;;8.28;43.77
43480;BME280;29067;35.492;-97.520;2024-01-30T11:19:01;97817.98;;;8.70;44.30
43480;BME280;29067;35.492;-97.520;2024-01-30T11:21:29;97819.69;;;6.85;45.28
43480;BME280;29067;35.492;-97.520;2024-01-30T11:23:57;97810.55;;;8.58;43.63
43480;BME280;29067;35.492;-97.520;2024-01-30T11:26:28;97815.43;;;8.83;43.43
43480;BME280;29067;35.492;-97.520;2024-01-30T11:45:00;97816.29;;;8.54;44.31
43480;BME280;29067;35.492;-97.520;2024-01-30T11:47:28;97820.74;;;5.48;44.32
43480;BME280;29067;35.492;-97.520;2024-01-30T11:49:56;97822.11;;;7.79;43.59
43480;BME280;29067;35.492;-97.520;2024-01-30T11:52:25;97825.08;;;7.69;44.22
43480;BME280;29067;35.492;-97.520;2024-01-30T11:54:53;97829.23;;;7.13;45.16
43480;BME280;29067;35.492;-97.520;2024-01-30T11:57:21;97835.58;;;6.96;46.00
43480;BME280;29067;35.492;-97.520;2024-01-30T11:59:49;97834.07;;;7.01;46.25
43480;BME280;29067;35.492;-97.520;2024-01-30T12:03:01;97835.70;;;7.60;45.08
43480;BME280;29067;35.492;-97.520;2024-01-30T12:05:29;97840.77;;;6.63;46.45
43480;BME280;29067;35.492;-97.520;2024-01-30T12:07:57;97846.45;;;7.13;45.96
43480;BME280;29067;35.492;-97.520;2024-01-30T12:10:25;97844.79;;;6.17;47.07
43480;BME280;29067;35.492;-97.520;2024-01-30T12:12:54;97843.26;;;7.42;45.47
43480;BME280;29067;35.492;-97.520;2024-01-30T12:15:23;97848.59;;;6.92;45.69
43480;BME280;29067;35.492;-97.520;2024-01-30T12:17:51;97842.65;;;7.22;45.68
43480;BME280;29067;35.492;-97.520;2024-01-30T12:20:20;97838.16;;;8.44;44.15
43480;BME280;29067;35.492;-97.520;2024-01-30T12:22:48;97843.49;;;6.60;46.11
43480;BME280;29067;35.492;-97.520;2024-01-30T12:25:19;97842.60;;;6.28;46.91
43480;BME280;29067;35.492;-97.520;2024-01-30T12:27:49;97843.70;;;5.78;47.58
43480;BME280;29067;35.492;-97.520;2024-01-30T12:30:21;97846.96;;;6.67;46.96
43480;BME280;29067;35.492;-97.520;2024-01-30T12:32:50;97848.27;;;6.48;46.63
43480;BME280;29067;35.492;-97.520;2024-01-30T12:35:20;97850.66;;;7.01;45.81
43480;BME280;29067;35.492;-97.520;2024-01-30T12:37:49;97853.81;;;7.54;45.18
43480;BME280;29067;35.492;-97.520;2024-01-30T12:40:17;97858.41;;;7.93;45.78
43480;BME280;29067;35.492;-97.520;2024-01-30T12:42:47;97853.79;;;8.12;44.64
43480;BME280;29067;35.492;-97.520;2024-01-30T12:45:15;97854.59;;;7.59;45.13
43480;BME280;29067;35.492;-97.520;2024-01-30T12:47:43;97852.16;;;6.25;46.67
43480;BME280;29067;35.492;-97.520;2024-01-30T12:50:11;97857.18;;;6.65;46.13
43480;BME280;29067;35.492;-97.520;2024-01-30T12:52:39;97855.32;;;6.54;47.30
43480;BME280;29067;35.492;-97.520;2024-01-30T12:55:07;97861.14;;;7.66;45.12
43480;BME280;29067;35.492;-97.520;2024-01-30T12:57:35;97867.71;;;7.06;46.29
43480;BME280;29067;35.492;-97.520;2024-01-30T13:00:03;97872.80;;;6.52;46.44
43480;BME280;29067;35.492;-97.520;2024-01-30T13:02:32;97874.49;;;7.01;46.79
43480;BME280;29067;35.492;-97.520;2024-01-30T13:05:00;97880.69;;;7.66;45.89
43480;BME280;29067;35.492;-97.520;2024-01-30T13:07:28;97879.28;;;7.27;46.65
43480;BME280;29067;35.492;-97.520;2024-01-30T13:09:57;97879.79;;;8.04;45.34